Time;durP1;ratioP1;P1;durP2;ratioP2;P2;SDS_P1;SDS_P2;PMS_P1;PMS_P2;Temp;Humidity;BMP_temperature;BMP_pressure;BME280_temperature;BME280_humidity;BME280_pressure;Samples;Min_cycle;Max_cycle;Signal;HPM_P1;HPM_P2
2022/06/30 00:01:59;;;;;;;;;;;18.40;99.90;;;;;;5042161;28;19920;-77
2022/06/30 00:04:24;;;;;;;;;;;18.60;99.90;;;;;;5055027;28;19921;-77
2022/06/30 00:06:52;;;;;;;;;;;18.40;99.90;;;;;;5053845;28;19921;-77
2022/06/30 00:09:19;;;;;;;;;;;18.40;99.90;;;;;;5054927;28;20396;-77
2022/06/30 00:11:44;;;;;;;;;;;18.40;99.90;;;;;;5046551;28;19924;-78
2022/06/30 00:14:09;;;;;;;;;;;18.40;99.90;;;;;;5053942;28;19924;-78
2022/06/30 00:16:35;;;;;;;;;;;18.40;99.90;;;;;;5046068;28;19954;-77
2022/06/30 00:19:01;;;;;;;;;;;18.40;99.90;;;;;;5057537;28;19924;-77
2022/06/30 00:21:26;;;;;;;;;;;18.40;99.90;;;;;;5048436;28;20296;-76
2022/06/30 00:23:52;;;;;;;;;;;18.50;99.90;;;;;;5045474;28;19966;-76
2022/06/30 00:26:17;;;;;;;;;;;18.40;99.90;;;;;;5065583;28;20053;-76
2022/06/30 00:28:43;;;;;;;;;;;18.30;99.90;;;;;;5045181;28;19924;-76
2022/06/30 00:31:08;;;;;;;;;;;18.30;99.90;;;;;;5062529;28;19926;-76
2022/06/30 00:33:34;;;;;;;;;;;18.30;99.90;;;;;;5066329;28;19920;-76
2022/06/30 00:35:59;;;;;;;;;;;18.30;99.90;;;;;;5062097;28;20011;-76
2022/06/30 00:38:25;;;;;;;;;;;18.30;99.90;;;;;;5044268;28;19927;-77
2022/06/30 00:40:50;;;;;;;;;;;18.30;99.90;;;;;;5066248;28;20050;-77
2022/06/30 00:43:16;;;;;;;;;;;18.30;99.90;;;;;;5058180;28;19973;-77
2022/06/30 00:45:42;;;;;;;;;;;18.20;99.90;;;;;;5066000;28;19960;-76
2022/06/30 00:48:08;;;;;;;;;;;18.10;99.90;;;;;;5063091;28;19924;-76
2022/06/30 00:50:34;;;;;;;;;;;18.20;99.90;;;;;;5062299;28;19974;-78
2022/06/30 00:53:02;;;;;;;;;;;18.20;99.90;;;;;;5064718;28;19927;-76
2022/06/30 00:55:28;;;;;;;;;;;18.10;99.90;;;;;;5064073;28;19920;-76
2022/06/30 00:57:54;;;;;;;;;;;18.10;99.90;;;;;;5047040;28;19944;-77
2022/06/30 01:00:20;;;;;;;;;;;18.10;99.90;;;;;;5046445;28;19965;-77
2022/06/30 01:02:47;;;;;;;;;;;18.10;99.90;;;;;;5061860;28;19925;-77
2022/06/30 01:05:12;;;;;;;;;;;18.10;99.90;;;;;;5065645;28;19966;-78
2022/06/30 01:07:39;;;;;;;;;;;18.10;99.90;;;;;;5045676;28;19932;-78
2022/06/30 01:12:48;;;;;;;;;;;18.00;99.90;;;;;;5044961;28;19920;-78
2022/06/30 01:15:15;;;;;;;;;;;18.00;99.90;;;;;;5061688;28;20406;-78
2022/06/30 01:17:41;;;;;;;;;;;18.00;99.90;;;;;;5062013;28;19927;-78
2022/06/30 01:20:07;;;;;;;;;;;18.10;99.90;;;;;;5046741;28;19959;-78
2022/06/30 01:22:33;;;;;;;;;;;18.00;99.90;;;;;;5063162;28;19959;-78
2022/06/30 01:24:58;;;;;;;;;;;18.10;99.90;;;;;;5063037;28;19963;-79
2022/06/30 01:27:24;;;;;;;;;;;18.50;99.90;;;;;;5046319;28;19917;-78
2022/06/30 01:29:50;;;;;;;;;;;18.20;99.90;;;;;;5044279;28;19974;-78
2022/06/30 01:32:16;;;;;;;;;;;18.30;99.90;;;;;;5064244;28;20380;-78
2022/06/30 01:34:42;;;;;;;;;;;18.20;99.90;;;;;;5061683;28;19979;-78
2022/06/30 01:37:07;;;;;;;;;;;18.30;99.90;;;;;;5061774;28;20411;-78
2022/06/30 01:39:33;;;;;;;;;;;18.30;99.90;;;;;;5064052;28;20360;-78
2022/06/30 01:41:59;;;;;;;;;;;18.20;99.90;;;;;;5062424;28;19959;-78
2022/06/30 01:44:24;;;;;;;;;;;18.30;99.90;;;;;;5063458;28;19921;-78
2022/06/30 01:46:50;;;;;;;;;;;18.30;99.90;;;;;;5044803;28;19920;-78
2022/06/30 01:49:15;;;;;;;;;;;18.40;99.90;;;;;;5044012;28;19921;-78
2022/06/30 01:51:41;;;;;;;;;;;18.40;99.90;;;;;;5065252;28;19974;-78
2022/06/30 01:54:08;;;;;;;;;;;18.50;99.90;;;;;;5060385;28;19977;-78
2022/06/30 01:56:37;;;;;;;;;;;18.50;99.90;;;;;;5064897;28;19931;-78
2022/06/30 01:59:03;;;;;;;;;;;18.50;99.90;;;;;;5043479;28;19921;-78
2022/06/30 02:01:29;;;;;;;;;;;18.90;99.90;;;;;;5063830;28;20307;-79
2022/06/30 02:03:54;;;;;;;;;;;18.60;99.90;;;;;;5044203;28;19927;-78
2022/06/30 02:06:20;;;;;;;;;;;18.60;99.90;;;;;;5062374;28;19982;-79
2022/06/30 02:08:46;;;;;;;;;;;18.60;99.90;;;;;;5045895;28;19920;-78
2022/06/30 02:11:11;;;;;;;;;;;18.70;99.90;;;;;;5043436;28;20399;-78
2022/06/30 02:13:37;;;;;;;;;;;18.60;99.90;;;;;;5046164;28;19920;-79
2022/06/30 02:16:02;;;;;;;;;;;18.60;99.90;;;;;;5061093;28;19925;-78
2022/06/30 02:18:28;;;;;;;;;;;18.60;99.90;;;;;;5046479;28;20334;-78
2022/06/30 02:20:53;;;;;;;;;;;18.60;99.90;;;;;;5057633;28;20041;-78
2022/06/30 02:23:19;;;;;;;;;;;18.60;99.90;;;;;;5063017;28;19921;-78
2022/06/30 02:25:44;;;;;;;;;;;18.50;99.90;;;;;;5045446;28;19916;-78
2022/06/30 02:28:10;;;;;;;;;;;18.50;99.90;;;;;;5060988;28;20523;-78
2022/06/30 02:30:35;;;;;;;;;;;18.40;99.90;;;;;;5063862;28;20023;-79
2022/06/30 02:33:01;;;;;;;;;;;18.30;99.90;;;;;;5060642;28;19921;-78
2022/06/30 02:35:27;;;;;;;;;;;18.30;99.90;;;;;;5063363;28;19926;-78
2022/06/30 02:37:53;;;;;;;;;;;18.20;99.90;;;;;;5061373;28;20873;-78
2022/06/30 02:40:19;;;;;;;;;;;18.20;99.90;;;;;;5060605;28;19968;-78
2022/06/30 02:42:44;;;;;;;;;;;18.20;99.90;;;;;;5043938;28;20387;-78
2022/06/30 02:45:10;;;;;;;;;;;18.30;99.90;;;;;;5062768;28;19920;-78
2022/06/30 02:47:37;;;;;;;;;;;18.30;99.90;;;;;;5061248;28;19920;-78
2022/06/30 02:50:03;;;;;;;;;;;18.40;99.90;;;;;;5062931;28;19925;-79
2022/06/30 02:52:30;;;;;;;;;;;18.30;99.90;;;;;;5060859;28;20284;-79
2022/06/30 02:54:56;;;;;;;;;;;18.40;99.90;;;;;;5059227;28;19920;-78
2022/06/30 02:57:21;;;;;;;;;;;18.30;99.90;;;;;;5062170;28;20413;-78
2022/06/30 02:59:47;;;;;;;;;;;18.30;99.90;;;;;;5043245;28;19920;-78
2022/06/30 03:02:12;;;;;;;;;;;18.20;99.90;;;;;;5061406;28;19931;-78
2022/06/30 03:04:38;;;;;;;;;;;18.30;99.90;;;;;;5062071;28;20023;-78
2022/06/30 03:07:03;;;;;;;;;;;18.20;99.90;;;;;;5042739;28;20011;-78
2022/06/30 03:09:29;;;;;;;;;;;18.20;99.90;;;;;;5063032;28;20009;-78
2022/06/30 03:11:54;;;;;;;;;;;18.20;99.90;;;;;;5041331;28;20296;-77
2022/06/30 03:14:20;;;;;;;;;;;18.20;99.90;;;;;;5063335;28;19920;-77
2022/06/30 03:16:45;;;;;;;;;;;18.20;99.90;;;;;;5060309;28;19932;-77
2022/06/30 03:19:11;;;;;;;;;;;18.10;99.90;;;;;;5055692;28;19921;-77
2022/06/30 03:21:37;;;;;;;;;;;18.10;99.90;;;;;;5051534;28;19927;-76
2022/06/30 03:24:03;;;;;;;;;;;18.10;99.90;;;;;;5050796;28;20023;-77
2022/06/30 03:26:28;;;;;;;;;;;18.10;99.90;;;;;;5051657;28;19927;-76
2022/06/30 03:28:54;;;;;;;;;;;18.10;99.90;;;;;;5051555;28;19927;-78
2022/06/30 03:31:19;;;;;;;;;;;18.10;99.90;;;;;;5051226;28;19920;-77
2022/06/30 03:33:45;;;;;;;;;;;18.00;99.90;;;;;;5042531;28;19924;-77
2022/06/30 03:36:10;;;;;;;;;;;17.90;99.90;;;;;;5051129;28;19960;-77
2022/06/30 03:38:36;;;;;;;;;;;17.90;99.90;;;;;;5039555;28;19921;-77
2022/06/30 03:41:01;;;;;;;;;;;17.90;99.90;;;;;;5041542;28;19921;-78
2022/06/30 03:43:27;;;;;;;;;;;17.90;99.90;;;;;;5042140;28;20287;-78
2022/06/30 03:45:53;;;;;;;;;;;17.80;99.90;;;;;;5050842;28;19925;-77
2022/06/30 03:48:18;;;;;;;;;;;17.90;99.90;;;;;;5041670;28;19920;-77
2022/06/30 03:50:44;;;;;;;;;;;17.80;99.90;;;;;;5051679;28;19924;-77
2022/06/30 03:53:09;;;;;;;;;;;17.80;99.90;;;;;;5041319;28;20399;-77
2022/06/30 03:55:39;;;;;;;;;;;17.80;99.90;;;;;;5051728;28;19928;-77
2022/06/30 03:58:07;;;;;;;;;;;17.80;99.90;;;;;;5051522;28;20014;-76
2022/06/30 04:00:34;;;;;;;;;;;17.80;99.90;;;;;;5050749;28;19925;-81
2022/06/30 04:03:00;;;;;;;;;;;17.90;99.90;;;;;;5051162;28;19921;-79
2022/06/30 04:05:26;;;;;;;;;;;17.90;99.90;;;;;;5042592;28;19927;-79
2022/06/30 04:07:51;;;;;;;;;;;17.90;99.90;;;;;;5050316;28;20003;-79
2022/06/30 04:10:18;;;;;;;;;;;18.00;99.90;;;;;;5051630;28;19920;-76
2022/06/30 04:12:43;;;;;;;;;;;18.00;99.90;;;;;;5050863;28;19971;-77
2022/06/30 04:15:10;;;;;;;;;;;18.00;99.90;;;;;;5051484;28;20475;-78
2022/06/30 04:17:35;;;;;;;;;;;18.10;99.90;;;;;;5051108;28;20007;-76
2022/06/30 04:20:01;;;;;;;;;;;18.50;99.90;;;;;;5040870;28;20015;-75
2022/06/30 04:22:26;;;;;;;;;;;18.10;99.90;;;;;;5051051;28;19999;-76
2022/06/30 04:24:52;;;;;;;;;;;18.10;99.90;;;;;;5054241;28;19920;-77
2022/06/30 04:27:18;;;;;;;;;;;18.20;99.90;;;;;;5054087;28;20398;-78
2022/06/30 04:29:43;;;;;;;;;;;18.30;99.90;;;;;;5055175;28;19924;-77
2022/06/30 04:34:53;;;;;;;;;;;18.30;99.90;;;;;;5051814;28;19924;-77
2022/06/30 04:37:19;;;;;;;;;;;18.30;99.90;;;;;;5044859;28;19920;-77
2022/06/30 04:39:44;;;;;;;;;;;18.40;99.90;;;;;;5054865;28;19916;-78
2022/06/30 04:42:10;;;;;;;;;;;18.50;99.90;;;;;;5044268;28;19936;-78
2022/06/30 04:44:35;;;;;;;;;;;18.50;99.90;;;;;;5054265;28;19923;-77
2022/06/30 04:47:01;;;;;;;;;;;18.50;99.90;;;;;;5054123;28;19929;-78
2022/06/30 04:49:26;;;;;;;;;;;18.50;99.90;;;;;;5053620;28;20368;-77
2022/06/30 04:51:52;;;;;;;;;;;18.60;99.90;;;;;;5054188;28;19963;-77
2022/06/30 04:54:17;;;;;;;;;;;18.50;99.90;;;;;;5054312;28;19927;-78
2022/06/30 04:56:43;;;;;;;;;;;18.50;99.90;;;;;;5054382;28;20388;-78
2022/06/30 04:59:08;;;;;;;;;;;18.50;99.90;;;;;;5054633;28;20321;-78
2022/06/30 05:01:34;;;;;;;;;;;18.50;99.90;;;;;;5050016;28;19927;-77
2022/06/30 05:04:06;;;;;;;;;;;18.50;99.90;;;;;;5053437;28;19929;-78
2022/06/30 05:06:31;;;;;;;;;;;18.50;99.90;;;;;;5053578;28;20384;-78
2022/06/30 05:08:57;;;;;;;;;;;18.50;99.90;;;;;;5053069;28;19931;-79
2022/06/30 05:11:22;;;;;;;;;;;18.50;99.90;;;;;;5054049;28;20463;-79
2022/06/30 05:13:48;;;;;;;;;;;18.50;99.90;;;;;;5054224;28;19920;-80
2022/06/30 05:16:13;;;;;;;;;;;18.60;99.90;;;;;;5053043;28;20380;-80
2022/06/30 05:18:39;;;;;;;;;;;18.70;99.90;;;;;;5053998;28;19920;-80
2022/06/30 05:21:04;;;;;;;;;;;19.10;99.90;;;;;;5054182;28;20032;-81
2022/06/30 05:23:31;;;;;;;;;;;18.90;99.90;;;;;;5053716;28;19951;-82
2022/06/30 05:28:40;;;;;;;;;;;19.10;99.90;;;;;;5051584;28;19920;-80
2022/06/30 05:31:06;;;;;;;;;;;18.90;99.90;;;;;;5052950;28;19920;-80
2022/06/30 05:33:32;;;;;;;;;;;19.00;99.90;;;;;;5054015;28;19921;-80
2022/06/30 05:35:57;;;;;;;;;;;19.00;99.90;;;;;;5044085;28;19916;-82
2022/06/30 05:38:23;;;;;;;;;;;19.10;99.90;;;;;;5053218;28;19974;-83
2022/06/30 05:40:49;;;;;;;;;;;19.20;99.90;;;;;;5054024;28;19916;-82
2022/06/30 05:43:15;;;;;;;;;;;19.20;99.90;;;;;;5053530;28;19920;-80
2022/06/30 05:45:41;;;;;;;;;;;19.20;99.90;;;;;;5052993;28;20422;-80
2022/06/30 05:48:07;;;;;;;;;;;19.30;99.90;;;;;;5043980;28;19921;-80
2022/06/30 05:50:33;;;;;;;;;;;19.30;99.90;;;;;;5053414;28;19920;-79
2022/06/30 05:52:58;;;;;;;;;;;19.40;99.90;;;;;;5043949;28;19967;-80
2022/06/30 05:55:24;;;;;;;;;;;19.50;99.90;;;;;;5038813;28;19973;-79
2022/06/30 05:57:50;;;;;;;;;;;19.50;99.90;;;;;;5053046;28;20296;-76
2022/06/30 06:00:16;;;;;;;;;;;19.60;99.90;;;;;;5052539;28;19935;-78
2022/06/30 06:02:41;;;;;;;;;;;19.60;99.90;;;;;;5043888;28;20026;-80
2022/06/30 06:05:07;;;;;;;;;;;19.70;99.90;;;;;;5052665;28;20352;-81
2022/06/30 06:07:33;;;;;;;;;;;19.70;99.90;;;;;;5043576;28;19962;-82
2022/06/30 06:09:58;;;;;;;;;;;19.80;99.90;;;;;;5052984;28;20329;-81
2022/06/30 06:12:24;;;;;;;;;;;19.80;99.90;;;;;;5052252;28;19920;-82
2022/06/30 06:14:49;;;;;;;;;;;19.90;99.90;;;;;;5053091;28;19943;-71
2022/06/30 06:17:15;;;;;;;;;;;20.00;99.90;;;;;;5052754;28;19928;-76
2022/06/30 06:19:41;;;;;;;;;;;20.00;99.90;;;;;;5042366;28;19920;-78
2022/06/30 06:22:07;;;;;;;;;;;20.10;99.90;;;;;;5051980;28;20399;-78
2022/06/30 06:24:33;;;;;;;;;;;20.20;99.90;;;;;;5053317;28;20393;-74
2022/06/30 06:26:58;;;;;;;;;;;20.30;99.90;;;;;;5041668;28;19971;-72
2022/06/30 06:29:24;;;;;;;;;;;20.40;99.90;;;;;;5042243;28;19925;-76
2022/06/30 06:31:49;;;;;;;;;;;20.40;99.90;;;;;;5052216;28;19927;-72
2022/06/30 06:34:15;;;;;;;;;;;20.50;99.90;;;;;;5051468;28;20031;-75
2022/06/30 06:36:40;;;;;;;;;;;20.60;99.90;;;;;;5052207;28;19960;-74
2022/06/30 06:39:07;;;;;;;;;;;20.80;99.90;;;;;;5051871;28;19928;-73
2022/06/30 06:41:33;;;;;;;;;;;20.90;99.90;;;;;;5051685;28;19977;-74
2022/06/30 06:43:58;;;;;;;;;;;20.80;99.90;;;;;;5052028;28;19924;-74
2022/06/30 06:46:27;;;;;;;;;;;20.90;99.90;;;;;;5051994;28;19920;-74
2022/06/30 06:49:00;;;;;;;;;;;20.80;99.90;;;;;;5051119;28;19921;-74
2022/06/30 06:51:25;;;;;;;;;;;20.90;99.90;;;;;;5052358;28;19921;-75
2022/06/30 06:53:51;;;;;;;;;;;20.90;99.90;;;;;;5041817;28;20011;-74
2022/06/30 06:56:19;;;;;;;;;;;21.00;99.90;;;;;;5051268;28;19927;-74
2022/06/30 06:58:45;;;;;;;;;;;21.00;99.90;;;;;;5048066;28;19927;-74
2022/06/30 07:01:10;;;;;;;;;;;21.00;99.90;;;;;;5051633;28;20858;-73
2022/06/30 07:03:36;;;;;;;;;;;21.20;99.90;;;;;;5041868;28;19927;-74
2022/06/30 07:06:02;;;;;;;;;;;21.30;99.90;;;;;;5038215;28;19975;-73
2022/06/30 07:08:28;;;;;;;;;;;21.40;99.90;;;;;;5039353;28;19921;-74
2022/06/30 07:10:56;;;;;;;;;;;21.50;99.90;;;;;;5041567;28;19947;-74
2022/06/30 07:13:22;;;;;;;;;;;21.50;99.90;;;;;;5051830;28;19967;-74
2022/06/30 07:15:48;;;;;;;;;;;21.70;99.90;;;;;;5051478;28;19928;-74
2022/06/30 07:18:13;;;;;;;;;;;21.80;99.90;;;;;;5052947;28;20371;-75
2022/06/30 07:20:39;;;;;;;;;;;21.90;99.90;;;;;;5060921;28;19921;-74
2022/06/30 07:23:04;;;;;;;;;;;22.30;99.90;;;;;;5062064;28;19927;-78
2022/06/30 07:25:30;;;;;;;;;;;22.80;99.90;;;;;;5062838;28;20003;-81
2022/06/30 07:27:55;;;;;;;;;;;23.70;99.90;;;;;;5062884;28;20011;-82
2022/06/30 07:30:21;;;;;;;;;;;24.60;99.90;;;;;;5063316;28;19920;-77
2022/06/30 07:32:47;;;;;;;;;;;25.30;99.90;;;;;;5065244;28;19927;-81
2022/06/30 07:35:12;;;;;;;;;;;25.80;99.90;;;;;;5043573;28;19927;-78
2022/06/30 07:37:38;;;;;;;;;;;26.30;99.90;;;;;;5062862;28;19917;-81
2022/06/30 07:40:05;;;;;;;;;;;26.70;99.90;;;;;;5048040;28;19925;-81
2022/06/30 07:42:30;;;;;;;;;;;27.10;99.90;;;;;;5061395;28;20281;-79
2022/06/30 07:44:56;;;;;;;;;;;27.30;99.50;;;;;;5060711;28;19924;-79
2022/06/30 07:47:22;;;;;;;;;;;27.60;99.50;;;;;;5044810;28;19920;-78
2022/06/30 07:49:48;;;;;;;;;;;27.70;99.50;;;;;;5058613;28;19921;-78
2022/06/30 07:52:13;;;;;;;;;;;27.90;98.70;;;;;;5058131;28;19925;-78
2022/06/30 07:54:39;;;;;;;;;;;27.90;98.50;;;;;;5059390;28;19943;-79
2022/06/30 07:57:04;;;;;;;;;;;28.10;99.00;;;;;;5042699;28;19923;-78
2022/06/30 07:59:30;;;;;;;;;;;28.30;98.20;;;;;;5060975;28;20261;-79
2022/06/30 08:01:55;;;;;;;;;;;28.30;98.40;;;;;;5066608;28;19940;-79
2022/06/30 08:04:21;;;;;;;;;;;28.40;98.30;;;;;;5065244;28;20011;-78
2022/06/30 08:06:47;;;;;;;;;;;28.50;97.90;;;;;;5046257;28;20284;-78
2022/06/30 08:09:12;;;;;;;;;;;28.40;98.10;;;;;;5066190;28;19924;-78
2022/06/30 08:11:38;;;;;;;;;;;28.20;98.30;;;;;;5062952;28;19978;-78
2022/06/30 08:14:04;;;;;;;;;;;28.70;97.90;;;;;;5044333;28;20295;-78
2022/06/30 08:16:29;;;;;;;;;;;28.70;97.70;;;;;;5064377;28;19924;-78
2022/06/30 08:18:55;;;;;;;;;;;29.10;97.20;;;;;;5041267;28;19921;-80
2022/06/30 08:21:20;;;;;;;;;;;29.20;97.80;;;;;;5036187;28;20312;-78
2022/06/30 08:23:49;;;;;;;;;;;29.40;96.90;;;;;;5035598;28;19944;-78
2022/06/30 08:26:14;;;;;;;;;;;29.50;96.70;;;;;;5034780;28;20280;-78
2022/06/30 08:28:40;;;;;;;;;;;29.60;97.10;;;;;;5034755;28;19983;-78
2022/06/30 08:31:05;;;;;;;;;;;29.80;96.40;;;;;;5034973;28;20440;-78
2022/06/30 08:33:31;;;;;;;;;;;29.70;96.20;;;;;;5034464;28;20284;-78
2022/06/30 08:35:57;;;;;;;;;;;29.70;97.00;;;;;;5050013;28;20364;-78
2022/06/30 08:38:22;;;;;;;;;;;29.50;96.60;;;;;;5035608;28;20325;-78
2022/06/30 08:43:33;;;;;;;;;;;30.00;96.00;;;;;;5028859;28;20013;-78
2022/06/30 08:45:59;;;;;;;;;;;30.20;95.80;;;;;;5034791;28;19968;-78
2022/06/30 08:48:25;;;;;;;;;;;30.10;95.90;;;;;;5033134;28;20399;-78
2022/06/30 08:50:54;;;;;;;;;;;30.20;95.80;;;;;;5034737;28;19972;-79
2022/06/30 08:53:22;;;;;;;;;;;30.40;95.40;;;;;;5035877;28;20019;-78
2022/06/30 08:55:47;;;;;;;;;;;30.40;95.40;;;;;;5033294;28;19928;-78
2022/06/30 08:58:14;;;;;;;;;;;30.60;94.90;;;;;;5034485;28;19925;-78
2022/06/30 09:00:41;;;;;;;;;;;30.70;95.30;;;;;;5034906;28;19948;-79
2022/06/30 09:03:06;;;;;;;;;;;30.90;94.40;;;;;;5034131;28;20357;-79
2022/06/30 09:05:32;;;;;;;;;;;31.20;93.70;;;;;;5034089;28;19966;-79
2022/06/30 09:07:58;;;;;;;;;;;31.40;93.90;;;;;;5032851;28;20400;-79
2022/06/30 09:10:25;;;;;;;;;;;31.70;93.80;;;;;;5033568;28;19931;-78
2022/06/30 09:13:03;;;;;;;;;;;31.90;94.10;;;;;;5033006;28;19927;-79
2022/06/30 09:15:30;;;;;;;;;;;31.90;93.40;;;;;;5034369;28;19921;-80
2022/06/30 09:17:56;;;;;;;;;;;31.50;94.00;;;;;;5032884;28;19979;-79
2022/06/30 09:20:32;;;;;;;;;;;31.30;93.60;;;;;;5042970;28;19924;-79
2022/06/30 09:22:57;;;;;;;;;;;31.30;94.20;;;;;;5040570;28;19921;-80
2022/06/30 09:25:30;;;;;;;;;;;31.80;94.00;;;;;;5045273;28;20432;-78
2022/06/30 09:27:55;;;;;;;;;;;32.00;94.00;;;;;;5051361;28;20364;-78
2022/06/30 09:30:23;;;;;;;;;;;32.20;93.40;;;;;;5053988;28;19927;-80
2022/06/30 09:33:02;;;;;;;;;;;31.50;94.30;;;;;;5055236;28;20368;-78
2022/06/30 09:35:28;;;;;;;;;;;30.80;94.50;;;;;;5049351;28;19928;-78
2022/06/30 09:37:59;;;;;;;;;;;31.10;95.30;;;;;;5037200;28;19929;-78
2022/06/30 09:40:30;;;;;;;;;;;31.50;95.10;;;;;;5036529;28;19963;-78
2022/06/30 09:42:56;;;;;;;;;;;31.50;94.10;;;;;;5044030;28;19935;-78
2022/06/30 09:45:36;;;;;;;;;;;32.00;94.20;;;;;;5053243;28;20510;-80
2022/06/30 09:48:02;;;;;;;;;;;32.20;93.70;;;;;;5053329;28;19921;-77
2022/06/30 09:50:28;;;;;;;;;;;32.30;93.40;;;;;;5052596;28;19967;-78
2022/06/30 09:53:04;;;;;;;;;;;32.40;94.70;;;;;;5043693;28;19978;-77
2022/06/30 09:55:39;;;;;;;;;;;32.80;93.70;;;;;;5050126;28;19966;-77
2022/06/30 09:58:05;;;;;;;;;;;32.90;92.70;;;;;;5050249;28;20297;-78
2022/06/30 10:00:30;;;;;;;;;;;33.00;92.60;;;;;;5053119;28;19928;-79
2022/06/30 10:03:02;;;;;;;;;;;33.10;93.60;;;;;;5052808;28;19993;-78
2022/06/30 10:05:28;;;;;;;;;;;33.10;92.10;;;;;;5052061;28;19921;-77
2022/06/30 10:07:53;;;;;;;;;;;33.20;90.30;;;;;;5052883;28;20066;-79
2022/06/30 10:10:19;;;;;;;;;;;33.20;91.10;;;;;;5052936;28;19970;-78
2022/06/30 10:12:45;;;;;;;;;;;33.40;91.80;;;;;;5048629;28;19971;-77
2022/06/30 10:15:15;;;;;;;;;;;33.00;92.70;;;;;;5035852;28;19921;-78
2022/06/30 10:17:45;;;;;;;;;;;33.10;93.10;;;;;;5051911;28;20376;-78
2022/06/30 10:20:10;;;;;;;;;;;33.30;93.10;;;;;;5016263;28;19947;-77
2022/06/30 10:22:38;;;;;;;;;;;33.50;92.30;;;;;;5027419;28;19925;-78
2022/06/30 10:25:04;;;;;;;;;;;33.50;92.40;;;;;;5027633;28;20384;-77
2022/06/30 10:27:29;;;;;;;;;;;33.40;93.20;;;;;;5009493;28;20011;-78
2022/06/30 10:29:56;;;;;;;;;;;33.70;91.30;;;;;;5011109;28;19921;-79
2022/06/30 10:32:41;;;;;;;;;;;33.80;90.70;;;;;;5026057;28;19929;-79
2022/06/30 10:35:15;;;;;;;;;;;33.40;90.50;;;;;;5025385;28;19922;-79
2022/06/30 10:38:05;;;;;;;;;;;33.10;90.00;;;;;;5022940;28;19924;-78
2022/06/30 10:40:40;;;;;;;;;;;33.10;90.80;;;;;;5009406;28;19921;-78
2022/06/30 10:43:06;;;;;;;;;;;32.90;91.10;;;;;;5011962;28;19975;-79
2022/06/30 10:45:31;;;;;;;;;;;32.80;92.10;;;;;;5024649;28;19933;-78
2022/06/30 10:48:07;;;;;;;;;;;33.00;90.80;;;;;;5021961;28;19928;-78
2022/06/30 10:50:36;;;;;;;;;;;32.60;92.00;;;;;;5003710;28;20305;-78
2022/06/30 10:53:03;;;;;;;;;;;32.30;92.40;;;;;;5005524;28;20007;-78
2022/06/30 10:55:29;;;;;;;;;;;32.20;91.50;;;;;;5020881;28;19960;-78
2022/06/30 10:58:03;;;;;;;;;;;32.50;92.50;;;;;;5030894;28;20399;-77
2022/06/30 11:00:49;;;;;;;;;;;32.40;92.50;;;;;;5021306;28;20201;-78
2022/06/30 11:03:30;;;;;;;;;;;32.80;92.30;;;;;;5017283;28;19921;-77
2022/06/30 11:05:59;;;;;;;;;;;32.70;92.40;;;;;;5022873;28;20016;-79
2022/06/30 11:08:50;;;;;;;;;;;32.60;90.90;;;;;;5003374;28;20020;-79
2022/06/30 11:11:24;;;;;;;;;;;32.50;91.70;;;;;;5003729;28;19922;-79
2022/06/30 11:13:51;;;;;;;;;;;32.10;92.00;;;;;;5005119;28;19971;-78
2022/06/30 11:16:18;;;;;;;;;;;32.10;92.20;;;;;;5021166;28;19921;-79
2022/06/30 11:18:44;;;;;;;;;;;32.10;92.30;;;;;;5007734;28;19967;-78
2022/06/30 11:21:09;;;;;;;;;;;31.80;91.60;;;;;;5031708;28;20337;-78
2022/06/30 11:23:39;;;;;;;;;;;31.70;91.70;;;;;;5030895;28;19956;-77
2022/06/30 11:28:50;;;;;;;;;;;31.20;93.00;;;;;;5026404;28;19924;-79
2022/06/30 11:31:23;;;;;;;;;;;31.60;92.20;;;;;;5030174;28;20289;-77
2022/06/30 11:33:53;;;;;;;;;;;31.50;91.90;;;;;;5032841;28;19925;-78
2022/06/30 11:36:18;;;;;;;;;;;31.30;92.80;;;;;;5027395;28;19928;-79
2022/06/30 11:38:44;;;;;;;;;;;31.20;92.00;;;;;;5032775;28;19921;-77
2022/06/30 11:43:54;;;;;;;;;;;31.10;92.20;;;;;;5029211;28;20376;-77
2022/06/30 11:46:19;;;;;;;;;;;31.20;91.90;;;;;;5035287;28;19921;-77
2022/06/30 11:48:45;;;;;;;;;;;31.10;91.90;;;;;;5028779;28;19928;-79
2022/06/30 11:51:11;;;;;;;;;;;30.80;91.90;;;;;;5028344;28;19928;-79
2022/06/30 11:53:37;;;;;;;;;;;30.80;93.20;;;;;;5035259;28;20280;-78
2022/06/30 11:56:03;;;;;;;;;;;30.70;92.00;;;;;;5026832;28;20023;-79
2022/06/30 11:58:29;;;;;;;;;;;30.30;92.10;;;;;;5033818;28;20000;-78
2022/06/30 12:00:54;;;;;;;;;;;30.20;91.80;;;;;;5031284;28;19921;-79
2022/06/30 12:03:20;;;;;;;;;;;30.20;91.80;;;;;;5037041;28;19936;-79
2022/06/30 12:05:46;;;;;;;;;;;30.30;92.10;;;;;;5033881;28;19928;-79
2022/06/30 12:08:11;;;;;;;;;;;30.40;92.10;;;;;;5032744;28;19921;-79
2022/06/30 12:10:37;;;;;;;;;;;30.20;91.10;;;;;;5035883;28;19921;-79
2022/06/30 12:13:03;;;;;;;;;;;30.20;91.30;;;;;;5032818;28;20467;-79
2022/06/30 12:15:29;;;;;;;;;;;30.40;91.10;;;;;;5033782;28;19963;-78
2022/06/30 12:17:56;;;;;;;;;;;30.20;91.00;;;;;;5032381;28;19925;-78
2022/06/30 12:20:22;;;;;;;;;;;30.30;90.60;;;;;;5048464;28;20015;-78
2022/06/30 12:22:51;;;;;;;;;;;30.30;92.30;;;;;;5055072;28;19921;-79
2022/06/30 12:25:17;;;;;;;;;;;30.10;90.50;;;;;;5053999;28;20828;-78
2022/06/30 12:27:47;;;;;;;;;;;30.00;91.00;;;;;;5045491;28;20008;-78
2022/06/30 12:30:31;;;;;;;;;;;30.00;91.20;;;;;;5044697;28;19951;-80
2022/06/30 12:32:58;;;;;;;;;;;30.30;91.30;;;;;;5053357;28;19927;-81
2022/06/30 12:35:24;;;;;;;;;;;30.30;91.20;;;;;;5055279;28;19927;-78
2022/06/30 12:37:51;;;;;;;;;;;30.10;90.70;;;;;;5045134;28;20361;-77
2022/06/30 12:40:19;;;;;;;;;;;30.20;91.40;;;;;;5044423;28;19917;-78
2022/06/30 12:42:50;;;;;;;;;;;30.30;91.00;;;;;;5041287;28;20360;-78
2022/06/30 12:45:34;;;;;;;;;;;30.20;91.20;;;;;;5054428;28;19917;-79
2022/06/30 12:48:00;;;;;;;;;;;30.30;90.90;;;;;;5051086;28;19999;-80
2022/06/30 12:50:26;;;;;;;;;;;30.20;91.80;;;;;;5045043;28;20003;-80
2022/06/30 12:52:51;;;;;;;;;;;29.80;91.30;;;;;;5054251;28;20327;-80
2022/06/30 12:55:17;;;;;;;;;;;30.00;91.30;;;;;;5053960;28;20368;-79
2022/06/30 12:57:45;;;;;;;;;;;30.10;90.60;;;;;;5054744;28;20050;-79
2022/06/30 13:00:12;;;;;;;;;;;30.10;90.90;;;;;;5053534;28;20267;-79
2022/06/30 13:02:39;;;;;;;;;;;30.10;90.70;;;;;;5054708;28;19923;-80
2022/06/30 13:05:10;;;;;;;;;;;30.00;90.70;;;;;;5052819;28;19928;-75
2022/06/30 13:07:36;;;;;;;;;;;29.50;91.80;;;;;;5037521;28;20401;-78
2022/06/30 13:10:03;;;;;;;;;;;29.80;91.60;;;;;;5036166;28;19925;-77
2022/06/30 13:12:28;;;;;;;;;;;29.90;92.30;;;;;;5052934;28;20054;-78
2022/06/30 13:14:56;;;;;;;;;;;29.80;92.90;;;;;;5051658;28;20019;-76
2022/06/30 13:17:22;;;;;;;;;;;30.00;93.00;;;;;;5053002;28;19971;-77
2022/06/30 13:19:47;;;;;;;;;;;30.00;91.70;;;;;;5038167;28;19968;-77
2022/06/30 13:22:13;;;;;;;;;;;29.80;92.10;;;;;;5034698;28;19924;-78
2022/06/30 13:24:39;;;;;;;;;;;29.70;92.50;;;;;;5008526;28;20022;-79
2022/06/30 13:27:04;;;;;;;;;;;29.70;92.00;;;;;;5005891;28;19925;-80
2022/06/30 13:29:34;;;;;;;;;;;29.40;92.00;;;;;;5023655;28;20038;-80
2022/06/30 13:32:00;;;;;;;;;;;29.30;92.00;;;;;;5005310;28;19928;-79
2022/06/30 13:34:26;;;;;;;;;;;29.50;91.90;;;;;;5023729;28;19921;-79
2022/06/30 13:36:52;;;;;;;;;;;29.50;91.90;;;;;;5021227;28;20316;-75
2022/06/30 13:39:18;;;;;;;;;;;29.30;92.00;;;;;;5025132;28;19917;-77
2022/06/30 13:41:44;;;;;;;;;;;29.40;91.80;;;;;;5022345;28;19948;-77
2022/06/30 13:44:10;;;;;;;;;;;29.00;91.20;;;;;;5024408;28;19925;-77
2022/06/30 13:46:36;;;;;;;;;;;29.20;91.50;;;;;;5022026;28;19917;-77
2022/06/30 13:49:02;;;;;;;;;;;28.70;91.60;;;;;;5022483;28;19936;-79
2022/06/30 13:51:29;;;;;;;;;;;28.80;91.40;;;;;;5022234;28;19921;-78
2022/06/30 13:53:55;;;;;;;;;;;29.00;91.30;;;;;;5005624;28;20016;-78
2022/06/30 13:56:22;;;;;;;;;;;28.90;90.20;;;;;;5022914;28;20004;-77
2022/06/30 13:58:47;;;;;;;;;;;28.90;90.80;;;;;;5005222;28;19922;-79
2022/06/30 14:01:13;;;;;;;;;;;28.90;91.20;;;;;;5024281;28;20015;-79
2022/06/30 14:03:38;;;;;;;;;;;28.90;91.20;;;;;;5021774;28;19928;-78
2022/06/30 14:06:04;;;;;;;;;;;29.10;91.30;;;;;;5024445;28;19925;-78
2022/06/30 14:08:30;;;;;;;;;;;29.30;91.20;;;;;;5023256;28;19921;-79
2022/06/30 14:10:56;;;;;;;;;;;29.30;90.80;;;;;;5004820;28;19921;-80
2022/06/30 14:13:22;;;;;;;;;;;29.20;90.90;;;;;;5025676;28;19967;-75
2022/06/30 14:15:47;;;;;;;;;;;29.10;91.20;;;;;;5022696;28;20012;-75
2022/06/30 14:18:13;;;;;;;;;;;29.20;90.70;;;;;;5023464;28;20302;-77
2022/06/30 14:20:39;;;;;;;;;;;28.90;90.60;;;;;;5032756;28;20391;-77
2022/06/30 14:23:04;;;;;;;;;;;28.40;91.00;;;;;;5032943;28;19932;-76
2022/06/30 14:25:30;;;;;;;;;;;28.40;91.00;;;;;;5032211;28;19921;-75
2022/06/30 14:27:56;;;;;;;;;;;27.70;91.30;;;;;;5030422;28;19921;-78
2022/06/30 14:30:21;;;;;;;;;;;27.40;91.40;;;;;;5028822;28;20372;-82